Time;durP1;ratioP1;P1;durP2;ratioP2;P2;SDS_P1;SDS_P2;PMS_P1;PMS_P2;Temp;Humidity;BMP_temperature;BMP_pressure;BME280_temperature;BME280_humidity;BME280_pressure;Samples;Min_cycle;Max_cycle;Signal;HPM_P1;HPM_P2
2022/12/09 00:01:32;;;;;;;35.40;14.73;;;;;;;;;;4940346;29;20234;-77
2022/12/09 00:03:58;;;;;;;31.97;15.27;;;;;;;;;;4940347;29;20125;-78
2022/12/09 00:06:25;;;;;;;33.07;13.67;;;;;;;;;;4924429;29;20138;-79
2022/12/09 00:08:50;;;;;;;37.23;14.57;;;;;;;;;;4924362;29;20058;-78
2022/12/09 00:11:16;;;;;;;31.60;15.07;;;;;;;;;;4924283;29;20473;-78
2022/12/09 00:13:42;;;;;;;34.93;15.10;;;;;;;;;;4956383;29;20050;-79
2022/12/09 00:16:08;;;;;;;34.33;14.77;;;;;;;;;;4940093;29;20035;-79
2022/12/09 00:18:34;;;;;;;37.73;15.13;;;;;;;;;;4924252;29;20135;-78
2022/12/09 00:21:14;;;;;;;37.03;14.67;;;;;;;;;;4940168;29;20114;-79
2022/12/09 00:23:40;;;;;;;40.60;14.47;;;;;;;;;;4925079;29;20051;-79
2022/12/09 00:26:05;;;;;;;31.43;14.00;;;;;;;;;;4924059;29;20177;-78
2022/12/09 00:28:31;;;;;;;32.77;15.27;;;;;;;;;;4939813;29;20367;-78
2022/12/09 00:31:01;;;;;;;31.27;14.33;;;;;;;;;;4939217;29;20050;-78
2022/12/09 00:33:28;;;;;;;32.57;14.33;;;;;;;;;;4923936;29;20521;-79
2022/12/09 00:35:54;;;;;;;33.97;14.83;;;;;;;;;;4923857;29;20430;-78
2022/12/09 00:38:19;;;;;;;37.73;14.97;;;;;;;;;;4923738;29;20094;-78
2022/12/09 00:40:45;;;;;;;37.83;14.20;;;;;;;;;;4923890;29;20155;-76
2022/12/09 00:43:13;;;;;;;37.97;15.40;;;;;;;;;;4924130;29;20058;-78
2022/12/09 00:45:38;;;;;;;32.23;15.17;;;;;;;;;;4923777;29;20043;-78
2022/12/09 00:48:04;;;;;;;38.07;15.80;;;;;;;;;;4923688;29;20042;-78
2022/12/09 00:50:30;;;;;;;31.50;13.70;;;;;;;;;;4955467;29;20109;-77
2022/12/09 00:52:55;;;;;;;36.13;14.67;;;;;;;;;;4939255;29;20050;-76
2022/12/09 00:55:21;;;;;;;35.83;14.97;;;;;;;;;;4923525;29;20035;-77
2022/12/09 00:57:46;;;;;;;32.07;14.93;;;;;;;;;;4923377;29;20133;-77
2022/12/09 01:00:12;;;;;;;36.30;13.57;;;;;;;;;;4923776;29;20129;-76
2022/12/09 01:02:38;;;;;;;32.73;14.17;;;;;;;;;;4923860;29;20046;-76
2022/12/09 01:05:03;;;;;;;34.30;16.13;;;;;;;;;;4924839;29;20126;-77
2022/12/09 01:07:29;;;;;;;36.60;15.70;;;;;;;;;;4945922;29;20041;-75
2022/12/09 01:09:55;;;;;;;40.60;16.30;;;;;;;;;;4925168;29;20042;-76
2022/12/09 01:12:21;;;;;;;32.60;16.27;;;;;;;;;;4957055;29;20089;-76
2022/12/09 01:14:47;;;;;;;34.83;14.83;;;;;;;;;;4956107;29;20070;-77
2022/12/09 01:17:13;;;;;;;35.13;15.20;;;;;;;;;;4923341;29;20039;-77
2022/12/09 01:19:39;;;;;;;38.50;14.80;;;;;;;;;;4955184;29;20377;-76
2022/12/09 01:22:04;;;;;;;36.23;16.53;;;;;;;;;;4922932;29;20050;-77
2022/12/09 01:24:30;;;;;;;31.53;15.13;;;;;;;;;;4923526;29;20430;-76
2022/12/09 01:26:56;;;;;;;37.33;16.20;;;;;;;;;;4922316;29;20039;-76
2022/12/09 01:29:22;;;;;;;33.33;15.50;;;;;;;;;;4937680;29;20047;-76
2022/12/09 01:31:48;;;;;;;42.53;16.63;;;;;;;;;;4921985;29;20138;-78
2022/12/09 01:34:13;;;;;;;38.87;16.83;;;;;;;;;;4921986;29;20138;-76
2022/12/09 01:36:40;;;;;;;35.83;16.30;;;;;;;;;;4921314;29;20039;-78
2022/12/09 01:39:06;;;;;;;38.07;16.20;;;;;;;;;;4921424;29;20055;-75
2022/12/09 01:41:32;;;;;;;38.60;14.87;;;;;;;;;;4937671;29;20035;-74
2022/12/09 01:44:10;;;;;;;43.43;16.73;;;;;;;;;;4937200;29;20043;-76
2022/12/09 01:46:36;;;;;;;37.60;16.17;;;;;;;;;;4922678;29;20386;-75
2022/12/09 01:49:02;;;;;;;40.83;16.03;;;;;;;;;;4938294;29;20042;-75
2022/12/09 01:51:28;;;;;;;36.83;15.97;;;;;;;;;;4938251;29;20047;-75
2022/12/09 01:53:54;;;;;;;39.47;16.63;;;;;;;;;;4922180;29;20385;-74
2022/12/09 01:56:23;;;;;;;38.30;16.00;;;;;;;;;;4922498;29;20035;-74
2022/12/09 01:58:50;;;;;;;44.90;18.07;;;;;;;;;;4922622;29;20136;-73
2022/12/09 02:01:16;;;;;;;45.47;17.60;;;;;;;;;;4938494;29;20038;-74
2022/12/09 02:03:41;;;;;;;47.87;18.10;;;;;;;;;;4922182;29;20049;-74
2022/12/09 02:06:07;;;;;;;47.93;18.43;;;;;;;;;;4922435;29;20057;-74
2022/12/09 02:08:33;;;;;;;44.13;18.33;;;;;;;;;;4922320;29;20125;-74
2022/12/09 02:11:11;;;;;;;38.83;16.93;;;;;;;;;;4937842;29;20098;-75
2022/12/09 02:14:14;;;;;;;58.00;18.20;;;;;;;;;;4938734;29;20043;-74
2022/12/09 02:16:46;;;;;;;48.60;17.30;;;;;;;;;;4881428;29;20126;-74
2022/12/09 02:19:16;;;;;;;45.67;17.27;;;;;;;;;;4938042;29;20070;-74
2022/12/09 02:21:53;;;;;;;56.30;20.00;;;;;;;;;;4921910;29;20031;-74
2022/12/09 02:24:37;;;;;;;49.77;18.53;;;;;;;;;;4922315;29;20039;-74
2022/12/09 02:27:16;;;;;;;52.00;19.70;;;;;;;;;;4937534;29;20070;-74
2022/12/09 02:29:42;;;;;;;57.70;20.53;;;;;;;;;;4937824;29;20091;-74
2022/12/09 02:32:16;;;;;;;54.07;19.23;;;;;;;;;;4921688;29;20075;-73
2022/12/09 02:34:47;;;;;;;54.33;20.43;;;;;;;;;;4922150;29;20039;-72
2022/12/09 02:37:13;;;;;;;62.50;20.87;;;;;;;;;;4953504;29;20055;-71
2022/12/09 02:39:47;;;;;;;59.37;20.63;;;;;;;;;;4938032;29;20039;-74
2022/12/09 02:42:17;;;;;;;53.05;19.38;;;;;;;;;;4953598;29;20109;-74
2022/12/09 02:44:47;;;;;;;52.87;19.40;;;;;;;;;;4937855;29;20496;-73
2022/12/09 02:47:14;;;;;;;63.03;21.30;;;;;;;;;;4921896;29;20111;-74
2022/12/09 02:49:41;;;;;;;58.37;21.60;;;;;;;;;;4953523;29;20165;-74
2022/12/09 02:52:07;;;;;;;64.90;21.20;;;;;;;;;;4937096;29;20051;-74
2022/12/09 02:54:35;;;;;;;60.83;20.83;;;;;;;;;;4921010;29;20039;-74
2022/12/09 02:57:06;;;;;;;68.70;22.40;;;;;;;;;;4921359;29;20539;-72
2022/12/09 02:59:31;;;;;;;69.40;22.23;;;;;;;;;;4921563;29;20049;-73
2022/12/09 03:02:00;;;;;;;61.60;22.20;;;;;;;;;;4937289;29;20355;-73
2022/12/09 03:04:27;;;;;;;58.00;22.17;;;;;;;;;;4921163;29;20039;-74
2022/12/09 03:07:00;;;;;;;64.17;23.07;;;;;;;;;;4921630;29;20039;-74
2022/12/09 03:09:29;;;;;;;64.10;21.70;;;;;;;;;;4953107;29;20043;-73
2022/12/09 03:11:57;;;;;;;57.73;21.60;;;;;;;;;;4936962;29;20132;-73
2022/12/09 03:14:32;;;;;;;67.10;23.27;;;;;;;;;;4921310;29;20081;-71
2022/12/09 03:17:13;;;;;;;61.23;22.10;;;;;;;;;;4921348;29;20039;-72
2022/12/09 03:19:46;;;;;;;58.45;21.48;;;;;;;;;;4920138;29;20106;-72
2022/12/09 03:22:14;;;;;;;65.20;22.07;;;;;;;;;;4919495;28;20077;-71
2022/12/09 03:24:52;;;;;;;50.93;20.77;;;;;;;;;;4919152;29;20071;-73
2022/12/09 03:27:20;;;;;;;68.53;21.00;;;;;;;;;;4934708;29;20477;-72
2022/12/09 03:29:47;;;;;;;61.70;21.50;;;;;;;;;;4934792;29;20090;-73
2022/12/09 03:32:16;;;;;;;65.27;21.50;;;;;;;;;;4918970;29;20482;-72
2022/12/09 03:34:43;;;;;;;58.50;21.67;;;;;;;;;;4951570;28;20106;-75
2022/12/09 03:37:09;;;;;;;76.40;22.00;;;;;;;;;;4935788;29;20066;-74
2022/12/09 03:39:37;;;;;;;66.90;22.70;;;;;;;;;;4920637;29;20035;-75
2022/12/09 03:42:06;;;;;;;67.23;22.20;;;;;;;;;;4953389;28;20085;-75
2022/12/09 03:44:38;;;;;;;63.53;21.57;;;;;;;;;;4936456;29;20042;-76
2022/12/09 03:47:04;;;;;;;71.07;23.17;;;;;;;;;;4952572;28;20039;-75
2022/12/09 03:49:30;;;;;;;65.90;23.40;;;;;;;;;;4920738;29;20054;-76
2022/12/09 03:52:00;;;;;;;69.00;22.77;;;;;;;;;;4920629;29;20069;-78
2022/12/09 03:54:34;;;;;;;70.15;22.77;;;;;;;;;;4936496;29;20047;-79
2022/12/09 03:57:00;;;;;;;65.57;24.40;;;;;;;;;;4936811;29;20152;-72
2022/12/09 03:59:28;;;;;;;66.23;23.50;;;;;;;;;;4920645;29;20578;-78
2022/12/09 04:01:54;;;;;;;74.60;24.33;;;;;;;;;;4920646;29;20070;-73
2022/12/09 04:04:20;;;;;;;63.87;23.07;;;;;;;;;;4920254;29;20073;-73
2022/12/09 04:06:46;;;;;;;67.17;24.07;;;;;;;;;;4953763;28;20454;-72
2022/12/09 04:09:11;;;;;;;63.10;22.50;;;;;;;;;;4923950;29;20451;-72
2022/12/09 04:11:37;;;;;;;74.70;25.53;;;;;;;;;;4923982;29;20082;-72
2022/12/09 04:14:02;;;;;;;67.97;23.60;;;;;;;;;;4923678;29;20042;-73
2022/12/09 04:16:28;;;;;;;72.30;23.70;;;;;;;;;;4955540;29;20038;-74
2022/12/09 04:18:54;;;;;;;67.73;24.17;;;;;;;;;;4924045;28;20050;-73
2022/12/09 04:21:20;;;;;;;58.37;22.87;;;;;;;;;;4955495;29;20530;-73
2022/12/09 04:23:45;;;;;;;60.53;21.67;;;;;;;;;;4923652;29;20050;-73
2022/12/09 04:26:13;;;;;;;54.73;20.27;;;;;;;;;;4939368;28;20398;-72
2022/12/09 04:28:38;;;;;;;64.97;23.80;;;;;;;;;;4939327;29;20353;-72
2022/12/09 04:31:04;;;;;;;61.03;22.53;;;;;;;;;;4923461;29;20043;-73
2022/12/09 04:33:31;;;;;;;62.53;21.53;;;;;;;;;;4923425;29;20497;-73
2022/12/09 04:36:02;;;;;;;59.57;21.33;;;;;;;;;;4939479;28;20039;-73
2022/12/09 04:38:28;;;;;;;67.67;22.73;;;;;;;;;;4923394;29;20093;-72
2022/12/09 04:40:53;;;;;;;60.17;22.83;;;;;;;;;;4923398;29;20043;-74
2022/12/09 04:43:19;;;;;;;55.20;21.80;;;;;;;;;;4923033;29;20036;-73
2022/12/09 04:45:45;;;;;;;66.40;22.63;;;;;;;;;;4922963;29;20047;-73
2022/12/09 04:48:10;;;;;;;61.47;22.07;;;;;;;;;;4923063;29;20039;-73
2022/12/09 04:50:38;;;;;;;66.60;23.57;;;;;;;;;;4922935;29;20042;-73
2022/12/09 04:53:04;;;;;;;59.83;23.03;;;;;;;;;;4922883;29;20039;-71
2022/12/09 04:55:29;;;;;;;58.03;22.87;;;;;;;;;;4923268;29;20046;-76
2022/12/09 04:57:55;;;;;;;63.30;23.00;;;;;;;;;;4923019;29;20039;-72
2022/12/09 05:00:21;;;;;;;60.87;22.67;;;;;;;;;;4922711;29;20035;-72
2022/12/09 05:02:46;;;;;;;58.83;22.23;;;;;;;;;;4922852;29;20047;-71
2022/12/09 05:05:12;;;;;;;53.93;21.20;;;;;;;;;;4922792;29;20085;-73
2022/12/09 05:07:38;;;;;;;57.23;21.83;;;;;;;;;;4954849;29;20514;-73
2022/12/09 05:10:04;;;;;;;59.43;22.33;;;;;;;;;;4922827;29;20050;-73
2022/12/09 05:12:31;;;;;;;65.00;25.50;;;;;;;;;;4922735;29;20051;-73
2022/12/09 05:14:57;;;;;;;66.30;23.43;;;;;;;;;;4948089;29;20130;-77
2022/12/09 05:17:23;;;;;;;71.23;27.17;;;;;;;;;;4921152;29;20068;-77
2022/12/09 05:19:49;;;;;;;62.70;24.57;;;;;;;;;;4921019;29;20109;-79
2022/12/09 05:22:16;;;;;;;61.43;23.67;;;;;;;;;;4921168;29;20050;-78
2022/12/09 05:24:43;;;;;;;57.13;23.37;;;;;;;;;;4954254;28;20134;-79
2022/12/09 05:27:11;;;;;;;60.60;24.37;;;;;;;;;;4930061;28;20038;-78
2022/12/09 05:29:39;;;;;;;63.40;24.13;;;;;;;;;;4955987;28;20045;-78
2022/12/09 05:32:05;;;;;;;49.87;22.20;;;;;;;;;;4940101;28;20396;-71
2022/12/09 05:34:31;;;;;;;57.67;23.33;;;;;;;;;;4940296;28;20517;-74
2022/12/09 05:36:56;;;;;;;52.57;21.97;;;;;;;;;;4940083;28;20117;-75
2022/12/09 05:39:22;;;;;;;55.13;22.40;;;;;;;;;;4956483;28;20041;-74
2022/12/09 05:41:48;;;;;;;60.97;22.97;;;;;;;;;;4940307;28;20469;-76
2022/12/09 05:44:13;;;;;;;50.10;21.50;;;;;;;;;;4940718;28;20062;-76
2022/12/09 05:46:39;;;;;;;58.67;23.07;;;;;;;;;;4940110;28;20026;-75
2022/12/09 05:49:05;;;;;;;53.73;23.77;;;;;;;;;;4940128;28;20035;-76
2022/12/09 05:51:32;;;;;;;57.97;23.33;;;;;;;;;;4940610;28;20046;-78
2022/12/09 05:54:01;;;;;;;62.20;24.20;;;;;;;;;;4940712;28;20057;-76
2022/12/09 05:56:27;;;;;;;55.97;23.80;;;;;;;;;;4940207;28;20034;-76
2022/12/09 05:58:53;;;;;;;54.93;22.13;;;;;;;;;;4956006;28;20540;-76
2022/12/09 06:01:19;;;;;;;59.43;23.37;;;;;;;;;;4971811;28;20050;-76
2022/12/09 06:03:48;;;;;;;52.03;22.07;;;;;;;;;;4939824;28;20054;-76
2022/12/09 06:06:15;;;;;;;51.07;21.80;;;;;;;;;;4956032;28;20042;-77
2022/12/09 06:08:41;;;;;;;61.57;23.63;;;;;;;;;;4939956;28;20130;-78
2022/12/09 06:11:10;;;;;;;56.23;23.33;;;;;;;;;;4955115;28;20058;-76
2022/12/09 06:13:36;;;;;;;51.40;21.70;;;;;;;;;;4955402;28;20491;-77
2022/12/09 06:16:02;;;;;;;48.97;21.80;;;;;;;;;;4955322;28;20073;-77
2022/12/09 06:18:28;;;;;;;53.07;21.47;;;;;;;;;;4955871;28;20069;-77
2022/12/09 06:20:54;;;;;;;48.27;21.80;;;;;;;;;;4939867;28;20056;-77
2022/12/09 06:23:19;;;;;;;55.37;23.00;;;;;;;;;;4939850;28;20108;-76
2022/12/09 06:25:45;;;;;;;53.10;21.23;;;;;;;;;;4929624;29;20117;-77
2022/12/09 06:28:11;;;;;;;50.93;20.63;;;;;;;;;;4901280;29;20031;-76
2022/12/09 06:30:36;;;;;;;51.57;20.47;;;;;;;;;;4901021;29;20074;-76
2022/12/09 06:33:02;;;;;;;47.63;21.30;;;;;;;;;;4917407;29;20130;-76
2022/12/09 06:35:28;;;;;;;46.40;21.63;;;;;;;;;;4901788;29;20036;-75
2022/12/09 06:37:54;;;;;;;47.80;20.37;;;;;;;;;;4901228;29;20055;-75
2022/12/09 06:40:22;;;;;;;50.30;20.93;;;;;;;;;;4917117;29;20039;-76
2022/12/09 06:42:49;;;;;;;47.80;21.73;;;;;;;;;;4917239;29;20050;-76
2022/12/09 06:45:18;;;;;;;46.87;20.10;;;;;;;;;;4901162;29;20035;-76
2022/12/09 06:47:45;;;;;;;50.97;20.73;;;;;;;;;;4901444;29;20039;-77
2022/12/09 06:50:11;;;;;;;44.60;19.77;;;;;;;;;;4917612;29;20128;-76
2022/12/09 06:52:38;;;;;;;50.50;21.20;;;;;;;;;;4950358;28;20050;-78
2022/12/09 06:55:04;;;;;;;47.17;20.50;;;;;;;;;;4936827;29;20058;-75
2022/12/09 06:57:30;;;;;;;43.43;19.47;;;;;;;;;;4920202;29;20377;-77
2022/12/09 06:59:55;;;;;;;47.13;20.70;;;;;;;;;;4936213;29;20050;-77
2022/12/09 07:02:21;;;;;;;43.67;18.67;;;;;;;;;;4920219;28;20035;-78
2022/12/09 07:04:51;;;;;;;45.33;19.87;;;;;;;;;;4919622;29;20090;-78
2022/12/09 07:07:16;;;;;;;44.10;20.50;;;;;;;;;;4919324;29;20043;-77
2022/12/09 07:09:42;;;;;;;55.90;22.97;;;;;;;;;;4931574;28;20509;-73
2022/12/09 07:12:08;;;;;;;48.73;20.47;;;;;;;;;;4968437;28;20039;-70
2022/12/09 07:14:35;;;;;;;54.30;21.67;;;;;;;;;;4937527;28;20512;-71
2022/12/09 07:17:01;;;;;;;50.27;21.10;;;;;;;;;;4953842;28;20053;-70
2022/12/09 07:19:26;;;;;;;51.20;21.37;;;;;;;;;;4953818;28;20023;-71
2022/12/09 07:21:52;;;;;;;48.00;20.90;;;;;;;;;;4955040;28;20469;-71
2022/12/09 07:24:18;;;;;;;49.67;21.83;;;;;;;;;;4953884;28;20063;-71
2022/12/09 07:26:44;;;;;;;45.60;21.57;;;;;;;;;;4937774;28;20422;-72
2022/12/09 07:29:09;;;;;;;46.37;20.43;;;;;;;;;;4937718;28;20525;-72
2022/12/09 07:31:36;;;;;;;61.27;22.13;;;;;;;;;;4953705;28;20054;-71
2022/12/09 07:34:02;;;;;;;50.10;21.17;;;;;;;;;;4937546;28;20048;-71
2022/12/09 07:36:29;;;;;;;49.27;19.83;;;;;;;;;;4937637;28;20034;-72
2022/12/09 07:39:05;;;;;;;43.70;19.00;;;;;;;;;;4934958;28;20050;-75
2022/12/09 07:41:31;;;;;;;45.83;19.37;;;;;;;;;;4956652;28;20910;-73
2022/12/09 07:43:57;;;;;;;41.70;19.47;;;;;;;;;;4941751;28;20052;-71
2022/12/09 07:46:23;;;;;;;39.53;19.40;;;;;;;;;;4941582;28;20062;-71
2022/12/09 07:48:48;;;;;;;48.17;21.80;;;;;;;;;;4948841;28;20385;-71
2022/12/09 07:51:14;;;;;;;47.47;20.17;;;;;;;;;;4969636;28;20035;-71
2022/12/09 07:53:40;;;;;;;51.57;20.13;;;;;;;;;;4957376;28;20054;-71
2022/12/09 07:56:07;;;;;;;48.10;22.27;;;;;;;;;;4956974;28;20381;-70
2022/12/09 07:58:34;;;;;;;46.90;20.23;;;;;;;;;;4956912;28;20038;-71
2022/12/09 08:01:10;;;;;;;56.23;21.33;;;;;;;;;;4957298;28;20023;-72
2022/12/09 08:03:37;;;;;;;53.13;20.93;;;;;;;;;;4938847;28;20112;-74
2022/12/09 08:06:02;;;;;;;53.50;21.77;;;;;;;;;;4956924;28;20505;-73
2022/12/09 08:08:29;;;;;;;54.00;22.03;;;;;;;;;;4941108;28;20129;-73
2022/12/09 08:10:55;;;;;;;49.20;21.40;;;;;;;;;;4951407;28;20050;-72
2022/12/09 08:13:20;;;;;;;52.23;22.33;;;;;;;;;;4955894;28;20073;-74
2022/12/09 08:15:48;;;;;;;51.53;22.07;;;;;;;;;;4981076;28;20023;-72
2022/12/09 08:18:14;;;;;;;59.47;22.10;;;;;;;;;;4949742;28;20046;-78
2022/12/09 08:20:41;;;;;;;54.00;20.97;;;;;;;;;;4941072;28;20042;-72
2022/12/09 08:23:06;;;;;;;51.77;22.57;;;;;;;;;;4956521;28;20050;-69
2022/12/09 08:25:32;;;;;;;55.90;22.07;;;;;;;;;;4940894;28;20056;-71
2022/12/09 08:27:58;;;;;;;56.10;22.40;;;;;;;;;;4940850;28;20049;-68
2022/12/09 08:30:23;;;;;;;50.57;20.37;;;;;;;;;;4940314;28;20185;-72
2022/12/09 08:32:49;;;;;;;43.20;18.77;;;;;;;;;;4940014;28;20516;-71
2022/12/09 08:35:14;;;;;;;55.43;20.33;;;;;;;;;;4939917;28;20039;-71
2022/12/09 08:37:40;;;;;;;47.97;18.57;;;;;;;;;;4939585;28;20058;-71
2022/12/09 08:40:06;;;;;;;46.57;18.50;;;;;;;;;;4940675;28;20046;-73
2022/12/09 08:42:33;;;;;;;49.13;19.43;;;;;;;;;;4940547;28;20030;-72
2022/12/09 08:44:59;;;;;;;52.10;18.97;;;;;;;;;;4939236;28;20505;-74
2022/12/09 08:47:30;;;;;;;45.37;18.50;;;;;;;;;;4952746;28;20038;-73
2022/12/09 08:49:57;;;;;;;44.47;18.60;;;;;;;;;;4940220;28;20039;-73
2022/12/09 08:52:22;;;;;;;43.67;18.90;;;;;;;;;;4955674;28;20057;-72
2022/12/09 08:54:48;;;;;;;42.40;17.23;;;;;;;;;;4940567;28;20042;-73
2022/12/09 08:57:14;;;;;;;42.80;18.07;;;;;;;;;;4940037;28;20122;-71
2022/12/09 08:59:39;;;;;;;47.60;18.57;;;;;;;;;;4940551;28;20035;-73
2022/12/09 09:02:05;;;;;;;49.53;19.13;;;;;;;;;;4940082;28;20067;-73
2022/12/09 09:04:32;;;;;;;40.50;18.07;;;;;;;;;;4940325;28;20353;-72
2022/12/09 09:06:58;;;;;;;39.83;16.63;;;;;;;;;;4940527;28;20038;-72
2022/12/09 09:09:24;;;;;;;41.93;17.40;;;;;;;;;;4940705;28;20687;-72
2022/12/09 09:11:50;;;;;;;59.87;20.07;;;;;;;;;;4955807;28;20050;-71
2022/12/09 09:14:15;;;;;;;44.93;19.30;;;;;;;;;;4940799;28;20046;-71
2022/12/09 09:16:42;;;;;;;40.53;17.53;;;;;;;;;;4940822;28;20041;-70
2022/12/09 09:19:11;;;;;;;41.77;17.77;;;;;;;;;;4956619;28;20392;-73
2022/12/09 09:21:37;;;;;;;47.97;18.23;;;;;;;;;;4941209;28;20062;-72
2022/12/09 09:24:06;;;;;;;43.10;17.83;;;;;;;;;;4940949;28;20081;-72
2022/12/09 09:26:32;;;;;;;40.93;18.10;;;;;;;;;;4941231;28;20108;-72
2022/12/09 09:28:58;;;;;;;43.70;17.27;;;;;;;;;;4940967;28;20485;-72
2022/12/09 09:31:24;;;;;;;38.43;17.70;;;;;;;;;;4940014;28;20057;-70
2022/12/09 09:33:50;;;;;;;43.10;17.70;;;;;;;;;;4938503;28;20472;-70
2022/12/09 09:36:20;;;;;;;37.37;16.80;;;;;;;;;;4938703;28;20042;-71
2022/12/09 09:38:46;;;;;;;39.53;17.38;;;;;;;;;;4954330;28;20522;-72
2022/12/09 09:41:15;;;;;;;43.70;17.90;;;;;;;;;;4955839;28;20110;-72
2022/12/09 09:43:42;;;;;;;39.40;17.30;;;;;;;;;;4956301;28;20093;-72
2022/12/09 09:46:11;;;;;;;39.47;17.03;;;;;;;;;;4940511;28;20042;-73
2022/12/09 09:48:37;;;;;;;39.63;16.87;;;;;;;;;;4940521;28;20042;-72
2022/12/09 09:51:13;;;;;;;34.97;16.00;;;;;;;;;;4940279;28;20050;-73
2022/12/09 09:53:39;;;;;;;43.43;17.33;;;;;;;;;;4940148;28;20054;-72
2022/12/09 09:56:17;;;;;;;37.37;15.70;;;;;;;;;;4939927;28;20074;-73
2022/12/09 09:58:48;;;;;;;34.87;15.97;;;;;;;;;;4940116;28;20031;-73
2022/12/09 10:01:16;;;;;;;41.10;15.80;;;;;;;;;;4972201;28;20038;-72
2022/12/09 10:03:48;;;;;;;37.13;15.80;;;;;;;;;;4939139;28;20042;-71
2022/12/09 10:06:25;;;;;;;38.07;15.57;;;;;;;;;;4956061;28;20722;-73
2022/12/09 10:08:57;;;;;;;39.03;14.73;;;;;;;;;;4940261;28;20540;-72
2022/12/09 10:11:29;;;;;;;37.90;16.13;;;;;;;;;;4937509;28;20104;-72
2022/12/09 10:14:16;;;;;;;36.13;16.17;;;;;;;;;;4921060;29;20094;-71
2022/12/09 10:17:01;;;;;;;37.97;14.97;;;;;;;;;;4921097;29;20482;-71
2022/12/09 10:19:47;;;;;;;38.10;15.37;;;;;;;;;;4920382;29;20139;-73
2022/12/09 10:22:18;;;;;;;35.67;14.83;;;;;;;;;;4955793;29;20035;-71
2022/12/09 10:24:57;;;;;;;31.73;14.25;;;;;;;;;;4920724;29;20046;-70
2022/12/09 10:27:34;;;;;;;40.50;15.23;;;;;;;;;;4920382;29;20970;-72
2022/12/09 10:30:11;;;;;;;36.20;15.13;;;;;;;;;;4939713;29;20043;-71
2022/12/09 10:32:37;;;;;;;39.03;15.23;;;;;;;;;;4920479;29;20043;-70
2022/12/09 10:35:15;;;;;;;38.57;15.70;;;;;;;;;;4920564;29;20046;-70
2022/12/09 10:37:41;;;;;;;33.47;14.67;;;;;;;;;;4936314;29;20063;-71
2022/12/09 10:40:10;;;;;;;36.73;15.97;;;;;;;;;;4920074;29;20042;-70
2022/12/09 10:45:32;;;;;;;36.43;14.73;;;;;;;;;;4936597;29;20047;-72
2022/12/09 10:47:57;;;;;;;34.13;15.43;;;;;;;;;;4920174;29;20042;-72
2022/12/09 10:50:30;;;;;;;33.27;14.33;;;;;;;;;;4919722;29;20905;-72
2022/12/09 10:52:56;;;;;;;36.43;15.73;;;;;;;;;;4919623;29;20054;-72
2022/12/09 10:55:29;;;;;;;32.40;14.53;;;;;;;;;;4936132;29;20136;-72
2022/12/09 10:58:10;;;;;;;35.30;14.80;;;;;;;;;;4952057;28;20054;-72
2022/12/09 11:00:36;;;;;;;35.40;15.10;;;;;;;;;;4935960;29;20154;-73
2022/12/09 11:03:02;;;;;;;39.63;16.27;;;;;;;;;;4920050;29;20129;-72
2022/12/09 11:05:32;;;;;;;37.13;16.00;;;;;;;;;;4935874;28;20043;-70
2022/12/09 11:07:58;;;;;;;35.73;14.97;;;;;;;;;;4918582;29;20035;-69
2022/12/09 11:10:24;;;;;;;34.67;14.50;;;;;;;;;;4918355;29;20054;-70
2022/12/09 11:12:57;;;;;;;33.33;14.83;;;;;;;;;;4919499;29;20047;-70
2022/12/09 11:15:30;;;;;;;41.53;15.50;;;;;;;;;;4938085;29;20035;-70
2022/12/09 11:18:15;;;;;;;29.27;13.20;;;;;;;;;;4958079;28;20039;-71
2022/12/09 11:20:43;;;;;;;38.23;15.17;;;;;;;;;;4958372;28;20535;-72
2022/12/09 11:23:11;;;;;;;37.17;15.47;;;;;;;;;;4926286;29;20046;-72
2022/12/09 11:25:37;;;;;;;36.90;15.60;;;;;;;;;;4926467;28;20070;-72
2022/12/09 11:28:15;;;;;;;39.90;15.53;;;;;;;;;;4926725;29;20133;-72
2022/12/09 11:30:52;;;;;;;38.40;15.73;;;;;;;;;;4926619;29;20081;-72
2022/12/09 11:33:21;;;;;;;34.20;15.83;;;;;;;;;;4925775;28;20090;-72
2022/12/09 11:35:59;;;;;;;33.17;14.50;;;;;;;;;;4926752;29;20094;-71
2022/12/09 11:38:40;;;;;;;33.80;14.63;;;;;;;;;;4925788;29;20066;-71
2022/12/09 11:41:05;;;;;;;38.28;15.73;;;;;;;;;;4926263;29;20133;-71
2022/12/09 11:43:34;;;;;;;35.23;14.37;;;;;;;;;;4926673;29;20462;-71
2022/12/09 11:46:00;;;;;;;36.87;15.17;;;;;;;;;;4942625;29;20486;-72
2022/12/09 11:48:30;;;;;;;37.53;15.00;;;;;;;;;;4959055;28;20102;-71
2022/12/09 11:50:56;;;;;;;38.85;15.13;;;;;;;;;;4942185;29;20500;-71
2022/12/09 11:53:25;;;;;;;38.77;14.47;;;;;;;;;;4925838;28;20062;-72
2022/12/09 11:55:59;;;;;;;37.67;15.90;;;;;;;;;;4942493;28;20042;-72
2022/12/09 11:58:49;;;;;;;33.63;14.73;;;;;;;;;;4926296;29;20673;-72
2022/12/09 12:01:23;;;;;;;38.00;15.27;;;;;;;;;;4918366;29;20448;-72
2022/12/09 12:04:00;;;;;;;35.23;14.83;;;;;;;;;;4926244;29;20047;-72
2022/12/09 12:06:34;;;;;;;35.50;14.53;;;;;;;;;;4958108;28;20102;-70
2022/12/09 12:09:06;;;;;;;30.43;13.23;;;;;;;;;;4926147;29;20037;-70
2022/12/09 12:11:35;;;;;;;32.03;13.77;;;;;;;;;;4924056;29;20067;-71
2022/12/09 12:14:11;;;;;;;39.00;15.17;;;;;;;;;;4920248;29;20458;-72
2022/12/09 12:16:56;;;;;;;41.43;15.43;;;;;;;;;;4937392;29;20561;-72
2022/12/09 12:19:32;;;;;;;41.00;14.97;;;;;;;;;;4922679;29;20391;-72
2022/12/09 12:22:03;;;;;;;41.13;14.23;;;;;;;;;;4922690;29;20054;-71
2022/12/09 12:24:44;;;;;;;32.87;13.87;;;;;;;;;;4923044;29;20041;-71
2022/12/09 12:27:13;;;;;;;35.38;14.55;;;;;;;;;;4920186;29;20468;-71
2022/12/09 12:29:44;;;;;;;33.60;14.13;;;;;;;;;;4935529;29;20047;-71
2022/12/09 12:32:09;;;;;;;;;;;;;;;;;;4935994;29;20052;-71
2022/12/09 12:34:38;;;;;;;31.03;13.47;;;;;;;;;;4919958;29;19906;-71
2022/12/09 12:37:26;;;;;;;33.03;14.57;;;;;;;;;;4919994;29;20039;-71
2022/12/09 12:39:52;;;;;;;30.97;14.00;;;;;;;;;;4935282;29;20044;-71
2022/12/09 12:42:28;;;;;;;32.23;14.00;;;;;;;;;;4919401;29;20040;-71
2022/12/09 12:47:47;;;;;;;39.97;13.80;;;;;;;;;;4935467;29;20043;-78
2022/12/09 12:50:28;;;;;;;33.40;13.33;;;;;;;;;;4919341;29;20051;-75
2022/12/09 12:52:53;;;;;;;29.67;13.48;;;;;;;;;;4937496;29;20051;-76
2022/12/09 12:55:42;;;;;;;35.80;13.70;;;;;;;;;;4921924;29;20047;-76
2022/12/09 12:58:08;;;;;;;28.13;12.90;;;;;;;;;;4922304;29;20130;-76
2022/12/09 13:00:50;;;;;;;27.60;12.47;;;;;;;;;;4922496;29;20276;-76
2022/12/09 13:03:35;;;;;;;32.70;12.40;;;;;;;;;;4921904;29;20093;-77
2022/12/09 13:06:00;;;;;;;30.87;14.13;;;;;;;;;;4938581;29;20137;-80
2022/12/09 13:08:26;;;;;;;27.23;11.93;;;;;;;;;;4922490;29;20585;-75
2022/12/09 13:10:53;;;;;;;26.43;11.97;;;;;;;;;;4924481;29;20083;-80
2022/12/09 13:13:21;;;;;;;29.53;12.77;;;;;;;;;;4922805;29;20118;-81
2022/12/09 13:15:51;;;;;;;29.13;11.83;;;;;;;;;;4938575;29;20066;-81
2022/12/09 13:18:27;;;;;;;30.40;13.20;;;;;;;;;;4937620;29;20326;-82
2022/12/09 13:20:54;;;;;;;31.37;13.23;;;;;;;;;;4920692;29;20047;-82
2022/12/09 13:23:38;;;;;;;26.70;11.50;;;;;;;;;;4921979;29;20035;-81
2022/12/09 13:26:22;;;;;;;30.03;12.20;;;;;;;;;;4938593;29;20512;-80
2022/12/09 13:29:07;;;;;;;27.83;12.30;;;;;;;;;;4922225;29;20038;-81
2022/12/09 13:31:34;;;;;;;30.93;13.50;;;;;;;;;;4923620;29;20039;-81
2022/12/09 13:34:24;;;;;;;29.40;11.83;;;;;;;;;;4941099;29;20050;-82
2022/12/09 13:36:52;;;;;;;25.30;10.83;;;;;;;;;;4941187;29;20031;-81
2022/12/09 13:39:36;;;;;;;30.77;11.30;;;;;;;;;;4926111;29;20548;-81
2022/12/09 13:44:48;;;;;;;29.57;12.40;;;;;;;;;;4940121;29;20035;-80
2022/12/09 13:47:20;;;;;;;27.53;10.80;;;;;;;;;;4925078;29;20035;-81
2022/12/09 13:49:57;;;;;;;28.17;12.63;;;;;;;;;;4924971;29;20486;-80
2022/12/09 13:52:58;;;;;;;30.70;12.63;;;;;;;;;;4922981;29;20501;-81
2022/12/09 13:55:27;;;;;;;34.20;12.98;;;;;;;;;;4886509;29;20140;-81
2022/12/09 13:58:00;;;;;;;27.37;12.60;;;;;;;;;;4947775;29;20058;-81
2022/12/09 14:00:26;;;;;;;31.63;12.47;;;;;;;;;;4922179;29;20489;-81
2022/12/09 14:03:15;;;;;;;34.40;13.23;;;;;;;;;;4922361;29;20039;-81
2022/12/09 14:05:41;;;;;;;29.40;12.57;;;;;;;;;;4917216;29;20751;-81
2022/12/09 14:08:18;;;;;;;38.33;12.90;;;;;;;;;;4953610;29;20042;-81
2022/12/09 14:10:45;;;;;;;25.70;11.57;;;;;;;;;;4921456;29;20049;-80
2022/12/09 14:13:30;;;;;;;31.93;11.97;;;;;;;;;;4935983;29;20485;-81
2022/12/09 14:16:15;;;;;;;30.17;12.37;;;;;;;;;;4921384;29;20035;-80
2022/12/09 14:18:41;;;;;;;30.30;12.60;;;;;;;;;;4921498;29;20374;-81
2022/12/09 14:21:16;;;;;;;26.83;12.13;;;;;;;;;;4921549;29;20039;-79
2022/12/09 14:24:01;;;;;;;33.03;12.80;;;;;;;;;;4924537;29;20039;-79
2022/12/09 14:26:36;;;;;;;29.33;12.00;;;;;;;;;;4922967;29;20122;-81
2022/12/09 14:29:02;;;;;;;28.93;12.20;;;;;;;;;;4921453;29;20133;-80
2022/12/09 14:31:48;;;;;;;30.50;12.10;;;;;;;;;;4952650;29;20566;-81
2022/12/09 14:34:53;;;;;;;24.03;11.70;;;;;;;;;;4921518;29;20059;-80
2022/12/09 14:37:18;;;;;;;31.30;12.07;;;;;;;;;;4885687;29;20064;-81
2022/12/09 14:39:49;;;;;;;26.67;11.57;;;;;;;;;;4901640;29;20036;-81